createdAt,value
2022-10-09T00:04:13.999Z,11.21
2022-10-09T00:09:18.849Z,11.14
2022-10-09T00:14:22.153Z,11.05
2022-10-09T00:19:25.570Z,10.94
2022-10-09T00:24:28.888Z,10.86
2022-10-09T00:29:32.909Z,10.80
2022-10-09T00:34:36.217Z,10.74
2022-10-09T00:39:39.732Z,10.71
2022-10-09T00:45:01.122Z,10.71
2022-10-09T00:50:22.711Z,10.64
2022-10-09T00:55:29.195Z,10.65
2022-10-09T01:00:33.224Z,10.66
2022-10-09T01:06:35.869Z,10.66
2022-10-09T01:11:55.342Z,10.61
2022-10-09T01:17:44.297Z,10.59
2022-10-09T01:23:11.981Z,10.52
2022-10-09T01:28:17.307Z,10.45
2022-10-09T01:33:20.650Z,10.36
2022-10-09T01:38:25.388Z,10.32
2022-10-09T01:43:28.676Z,10.24
2022-10-09T01:48:32.737Z,10.15
2022-10-09T01:53:37.446Z,10.12
2022-10-09T01:59:07.452Z,10.12
2022-10-09T02:04:14.930Z,10.10
2022-10-09T02:09:18.977Z,10.08
2022-10-09T02:14:22.831Z,10.04
2022-10-09T02:19:43.294Z,10.07
2022-10-09T02:24:47.774Z,10.12
2022-10-09T02:29:52.476Z,10.13
2022-10-09T02:34:55.919Z,10.08
2022-10-09T02:39:59.203Z,10.04
2022-10-09T02:45:02.615Z,9.99
2022-10-09T02:50:07.277Z,9.93
2022-10-09T02:55:10.676Z,9.83
2022-10-09T03:00:15.179Z,9.80
2022-10-09T03:05:18.671Z,9.73
2022-10-09T03:10:22.450Z,9.67
2022-10-09T03:15:25.762Z,9.67
2022-10-09T03:20:31.880Z,9.65
2022-10-09T03:25:35.170Z,9.59
2022-10-09T03:30:42.187Z,9.49
2022-10-09T03:35:50.381Z,9.42
2022-10-09T03:40:54.830Z,9.35
2022-10-09T03:46:01.094Z,9.35
2022-10-09T03:51:05.100Z,9.34
2022-10-09T03:56:08.532Z,9.27
2022-10-09T04:01:11.935Z,9.20
2022-10-09T04:06:15.904Z,9.14
2022-10-09T04:11:19.391Z,9.08
2022-10-09T04:16:22.696Z,9.05
2022-10-09T04:21:26.112Z,9.03
2022-10-09T04:26:29.426Z,9.00
2022-10-09T04:31:32.868Z,8.97
2022-10-09T04:36:36.187Z,8.92
2022-10-09T04:41:39.464Z,8.87
2022-10-09T04:46:43.097Z,8.82
2022-10-09T04:51:46.502Z,8.79
2022-10-09T04:56:49.805Z,8.80
2022-10-09T05:01:53.174Z,8.82
2022-10-09T05:06:56.639Z,8.85
2022-10-09T05:12:00.255Z,8.93
2022-10-09T05:17:14.592Z,9.07
2022-10-09T05:22:18.343Z,9.18
2022-10-09T05:27:21.654Z,9.27
2022-10-09T05:32:24.980Z,9.35
2022-10-09T05:37:28.206Z,9.41
2022-10-09T05:42:31.597Z,9.40
2022-10-09T05:47:35.115Z,9.42
2022-10-09T05:52:40.297Z,9.52
2022-10-09T05:57:43.657Z,9.59
2022-10-09T06:02:47.191Z,9.64
2022-10-09T06:07:51.019Z,9.73
2022-10-09T06:12:54.231Z,9.84
2022-10-09T06:17:58.045Z,9.90
2022-10-09T06:23:01.356Z,9.96
2022-10-09T06:28:04.873Z,9.98
2022-10-09T06:33:08.391Z,10.02
2022-10-09T06:38:11.910Z,10.09
2022-10-09T06:43:15.232Z,10.19
2022-10-09T06:48:18.836Z,10.33
2022-10-09T06:53:22.146Z,10.38
2022-10-09T06:58:26.161Z,10.45
2022-10-09T07:03:29.741Z,10.55
2022-10-09T07:08:34.082Z,10.65
2022-10-09T07:13:38.097Z,10.80
2022-10-09T07:18:41.576Z,10.95
2022-10-09T07:23:44.992Z,11.18
2022-10-09T07:28:49.465Z,11.28
2022-10-09T07:33:56.834Z,11.32
2022-10-09T07:39:00.660Z,11.44
2022-10-09T07:44:04.070Z,11.66
2022-10-09T07:49:07.537Z,11.74
2022-10-09T07:54:10.802Z,11.70
2022-10-09T07:59:16.459Z,11.74
2022-10-09T08:04:19.975Z,11.85
2022-10-09T08:09:23.492Z,11.91
2022-10-09T08:14:28.235Z,11.88
2022-10-09T08:19:31.680Z,12.09
2022-10-09T08:24:34.979Z,12.26
2022-10-09T08:29:40.394Z,12.33
2022-10-09T08:34:43.947Z,12.51
2022-10-09T08:39:47.222Z,12.64
2022-10-09T08:44:50.801Z,12.69
2022-10-09T08:50:02.374Z,12.64
2022-10-09T08:55:26.167Z,12.86
2022-10-09T09:00:45.250Z,13.21
2022-10-09T09:06:26.350Z,13.25
2022-10-09T09:12:19.480Z,13.38
2022-10-09T09:17:56.328Z,13.45
2022-10-09T09:23:02.203Z,13.61
2022-10-09T09:28:29.214Z,13.77
2022-10-09T09:33:45.071Z,13.82
2022-10-09T09:39:28.623Z,14.08
2022-10-09T09:44:17.497Z,13.91
2022-10-09T09:49:27.459Z,13.70
2022-10-09T09:54:31.512Z,13.81
2022-10-09T09:59:40.810Z,13.92
2022-10-09T10:04:53.261Z,13.89
2022-10-09T10:10:27.824Z,13.63
2022-10-09T10:15:34.819Z,13.44
2022-10-09T10:21:17.223Z,13.26
2022-10-09T10:26:42.322Z,13.07
2022-10-09T10:32:00.330Z,13.43
2022-10-09T10:37:15.711Z,13.47
2022-10-09T10:42:47.378Z,13.32
2022-10-09T10:47:56.532Z,13.50
2022-10-09T10:53:46.233Z,13.82
2022-10-09T10:59:26.615Z,14.40
2022-10-09T11:04:51.193Z,14.50
2022-10-09T11:10:05.859Z,14.41
2022-10-09T11:15:22.695Z,14.07
2022-10-09T11:20:59.566Z,13.73
2022-10-09T11:26:27.208Z,13.52
2022-10-09T11:31:53.614Z,13.70
2022-10-09T11:36:59.944Z,13.90
2022-10-09T11:42:04.893Z,14.14
2022-10-09T11:47:45.173Z,14.36
2022-10-09T11:53:11.377Z,14.32
2022-10-09T11:58:26.175Z,14.03
2022-10-09T12:03:37.296Z,13.91
2022-10-09T12:09:07.540Z,13.79
2022-10-09T12:14:23.854Z,13.72
2022-10-09T12:19:38.329Z,13.74
2022-10-09T12:24:47.173Z,14.05
2022-10-09T12:30:13.496Z,14.40
2022-10-09T12:35:29.119Z,14.61
2022-10-09T12:40:34.294Z,14.67
2022-10-09T12:45:44.892Z,14.66
2022-10-09T12:50:49.295Z,14.62
2022-10-09T12:56:01.473Z,14.66
2022-10-09T13:01:08.251Z,14.61
2022-10-09T13:06:19.304Z,14.62
2022-10-09T13:11:41.164Z,14.63
2022-10-09T13:16:47.816Z,14.61
2022-10-09T13:22:25.451Z,14.63
2022-10-09T13:27:35.182Z,14.62
2022-10-09T13:32:38.527Z,14.55
2022-10-09T13:37:42.461Z,14.50
2022-10-09T13:42:58.463Z,14.50
2022-10-09T13:48:02.186Z,14.48
2022-10-09T13:53:05.908Z,14.48
2022-10-09T13:58:09.730Z,14.47
2022-10-09T14:03:13.447Z,14.48
2022-10-09T14:08:16.812Z,14.46
2022-10-09T14:13:20.993Z,14.47
2022-10-09T14:18:24.612Z,14.49
2022-10-09T14:23:28.027Z,14.47
2022-10-09T14:28:31.918Z,14.41
2022-10-09T14:33:35.467Z,14.33
2022-10-09T14:38:42.981Z,14.22
2022-10-09T14:43:48.239Z,14.11
2022-10-09T14:48:55.234Z,14.02
2022-10-09T14:53:58.955Z,13.91
2022-10-09T14:59:03.325Z,13.81
2022-10-09T15:04:07.099Z,13.74
2022-10-09T15:09:11.143Z,13.66
2022-10-09T15:14:14.460Z,13.58
2022-10-09T15:19:17.970Z,13.49
2022-10-09T15:24:21.205Z,13.41
2022-10-09T15:29:24.801Z,13.27
2022-10-09T15:34:29.549Z,13.13
2022-10-09T15:39:34.197Z,12.99
2022-10-09T15:44:37.667Z,12.84
2022-10-09T15:49:44.871Z,12.67
2022-10-09T15:54:48.317Z,12.56
2022-10-09T15:59:51.731Z,12.49
2022-10-09T16:04:55.007Z,12.44
2022-10-09T16:09:59.274Z,12.37
2022-10-09T16:15:02.895Z,12.24
2022-10-09T16:20:07.717Z,12.05
2022-10-09T16:25:11.564Z,11.84
2022-10-09T16:30:14.978Z,11.60
2022-10-09T16:35:18.495Z,11.37
2022-10-09T16:40:32.687Z,11.22
2022-10-09T16:45:45.455Z,11.04
2022-10-09T16:50:48.913Z,10.88
2022-10-09T16:55:52.230Z,10.82
2022-10-09T17:01:03.901Z,10.74
2022-10-09T17:06:13.910Z,10.63
2022-10-09T17:11:18.720Z,10.58
2022-10-09T17:16:25.954Z,10.47
2022-10-09T17:21:34.149Z,10.28
2022-10-09T17:26:38.026Z,10.13
2022-10-09T17:31:41.627Z,10.04
2022-10-09T17:36:45.741Z,9.93
2022-10-09T17:41:49.265Z,9.84
2022-10-09T17:46:53.061Z,9.76
2022-10-09T17:51:56.432Z,9.65
2022-10-09T17:57:01.574Z,9.57
2022-10-09T18:02:06.030Z,9.53
2022-10-09T18:07:09.363Z,9.56
2022-10-09T18:12:12.717Z,9.60
2022-10-09T18:17:16.033Z,9.57
2022-10-09T18:22:19.439Z,9.47
2022-10-09T18:27:24.188Z,9.44
2022-10-09T18:32:27.600Z,9.36
2022-10-09T18:37:30.923Z,9.29
2022-10-09T18:42:36.065Z,9.19
2022-10-09T18:47:40.815Z,9.07
2022-10-09T18:52:45.559Z,8.97
2022-10-09T18:57:49.071Z,8.85
2022-10-09T19:02:52.486Z,8.84
2022-10-09T19:07:55.971Z,8.87
2022-10-09T19:12:59.418Z,8.96
2022-10-09T19:18:02.917Z,8.90
2022-10-09T19:23:06.197Z,8.78
2022-10-09T19:28:09.535Z,8.66
2022-10-09T19:33:14.065Z,8.54
2022-10-09T19:38:18.925Z,8.44
2022-10-09T19:43:24.478Z,8.33
2022-10-09T19:48:27.814Z,8.23
2022-10-09T19:53:31.290Z,8.20
2022-10-09T19:58:34.548Z,8.21
2022-10-09T20:03:39.840Z,8.28
2022-10-09T20:08:45.344Z,8.25
2022-10-09T20:13:55.564Z,8.19
2022-10-09T20:19:02.731Z,8.12
2022-10-09T20:24:06.929Z,8.10
2022-10-09T20:29:10.595Z,8.01
2022-10-09T20:34:13.835Z,7.87
2022-10-09T20:39:19.713Z,7.80
2022-10-09T20:44:23.392Z,7.79
2022-10-09T20:49:27.029Z,7.76
2022-10-09T20:54:30.709Z,7.78
2022-10-09T20:59:34.155Z,7.78
2022-10-09T21:04:37.566Z,7.61
2022-10-09T21:09:40.977Z,7.46
2022-10-09T21:14:44.400Z,7.38
2022-10-09T21:19:50.726Z,7.35
2022-10-09T21:24:54.085Z,7.28
2022-10-09T21:29:57.398Z,7.19
2022-10-09T21:35:00.711Z,7.14
2022-10-09T21:40:05.342Z,7.19
2022-10-09T21:45:09.855Z,7.23
2022-10-09T21:50:13.201Z,7.20
2022-10-09T21:55:16.852Z,7.12
2022-10-09T22:00:21.064Z,7.00
2022-10-09T22:05:24.479Z,6.82
2022-10-09T22:10:27.870Z,6.63
2022-10-09T22:15:31.197Z,6.48
2022-10-09T22:20:39.807Z,6.45
2022-10-09T22:25:43.240Z,6.46
2022-10-09T22:30:46.491Z,6.49
2022-10-09T22:35:49.764Z,6.55
2022-10-09T22:40:53.117Z,6.61
2022-10-09T22:45:56.507Z,6.64
2022-10-09T22:51:03.336Z,6.52
2022-10-09T22:56:15.355Z,6.42
2022-10-09T23:01:31.749Z,6.28
2022-10-09T23:06:35.532Z,6.25
2022-10-09T23:11:39.142Z,6.29
2022-10-09T23:16:43.413Z,6.32
2022-10-09T23:21:47.520Z,6.24
2022-10-09T23:26:52.234Z,6.27
2022-10-09T23:31:55.545Z,6.31
2022-10-09T23:36:58.955Z,6.26
2022-10-09T23:42:02.248Z,6.13
2022-10-09T23:47:05.612Z,6.04
2022-10-09T23:52:08.984Z,5.98
2022-10-09T23:57:12.340Z,5.90
